sensor_id;sensor_type;location;lat;lon;timestamp;P1;durP1;ratioP1;P2;durP2;ratioP2
75316;SDS011;63913;51.492;10.368;2023-11-21T00:00:09;2.85;;;1.27;;
75316;SDS011;63913;51.492;10.368;2023-11-21T00:02:41;2.30;;;1.05;;
75316;SDS011;63913;51.492;10.368;2023-11-21T00:05:07;3.53;;;1.13;;
75316;SDS011;63913;51.492;10.368;2023-11-21T00:07:34;3.47;;;1.67;;
75316;SDS011;63913;51.492;10.368;2023-11-21T00:10:00;3.60;;;0.95;;
75316;SDS011;63913;51.492;10.368;2023-11-21T00:12:26;1.40;;;1.02;;
75316;SDS011;63913;51.492;10.368;2023-11-21T00:14:52;2.92;;;1.08;;
75316;SDS011;63913;51.492;10.368;2023-11-21T00:17:18;1.90;;;1.20;;
75316;SDS011;63913;51.492;10.368;2023-11-21T00:19:44;4.53;;;1.10;;
75316;SDS011;63913;51.492;10.368;2023-11-21T00:22:09;3.22;;;0.95;;
75316;SDS011;63913;51.492;10.368;2023-11-21T00:24:34;3.67;;;1.15;;
75316;SDS011;63913;51.492;10.368;2023-11-21T00:27:00;1.45;;;1.27;;
75316;SDS011;63913;51.492;10.368;2023-11-21T00:29:25;1.77;;;0.90;;
75316;SDS011;63913;51.492;10.368;2023-11-21T00:31:51;3.30;;;1.40;;
75316;SDS011;63913;51.492;10.368;2023-11-21T00:34:17;1.98;;;0.98;;
75316;SDS011;63913;51.492;10.368;2023-11-21T00:36:42;3.25;;;1.20;;
75316;SDS011;63913;51.492;10.368;2023-11-21T00:39:08;5.25;;;1.20;;
75316;SDS011;63913;51.492;10.368;2023-11-21T00:41:33;2.28;;;1.13;;
75316;SDS011;63913;51.492;10.368;2023-11-21T00:43:59;4.82;;;1.50;;
75316;SDS011;63913;51.492;10.368;2023-11-21T00:46:25;4.70;;;2.20;;
75316;SDS011;63913;51.492;10.368;2023-11-21T00:48:53;2.25;;;1.17;;
75316;SDS011;63913;51.492;10.368;2023-11-21T00:51:19;1.52;;;1.10;;
75316;SDS011;63913;51.492;10.368;2023-11-21T00:53:45;4.50;;;1.27;;
75316;SDS011;63913;51.492;10.368;2023-11-21T00:56:11;4.60;;;1.38;;
75316;SDS011;63913;51.492;10.368;2023-11-21T00:58:36;7.90;;;1.73;;
75316;SDS011;63913;51.492;10.368;2023-11-21T01:01:02;4.40;;;1.48;;
75316;SDS011;63913;51.492;10.368;2023-11-21T01:03:28;3.85;;;1.70;;
75316;SDS011;63913;51.492;10.368;2023-11-21T01:05:54;2.08;;;1.40;;
75316;SDS011;63913;51.492;10.368;2023-11-21T01:08:20;2.95;;;1.02;;
75316;SDS011;63913;51.492;10.368;2023-11-21T01:10:46;2.55;;;1.42;;
75316;SDS011;63913;51.492;10.368;2023-11-21T01:13:12;5.03;;;1.48;;
75316;SDS011;63913;51.492;10.368;2023-11-21T01:15:40;2.50;;;1.42;;
75316;SDS011;63913;51.492;10.368;2023-11-21T01:18:06;3.13;;;1.33;;
75316;SDS011;63913;51.492;10.368;2023-11-21T01:20:33;2.55;;;1.45;;
75316;SDS011;63913;51.492;10.368;2023-11-21T01:22:59;3.42;;;1.60;;
75316;SDS011;63913;51.492;10.368;2023-11-21T01:25:26;4.93;;;1.63;;
75316;SDS011;63913;51.492;10.368;2023-11-21T01:27:51;2.45;;;1.52;;
75316;SDS011;63913;51.492;10.368;2023-11-21T01:30:17;2.28;;;1.50;;
75316;SDS011;63913;51.492;10.368;2023-11-21T01:32:43;3.88;;;1.55;;
75316;SDS011;63913;51.492;10.368;2023-11-21T01:35:09;4.90;;;1.65;;
75316;SDS011;63913;51.492;10.368;2023-11-21T01:37:35;3.38;;;1.50;;
75316;SDS011;63913;51.492;10.368;2023-11-21T01:40:01;3.47;;;1.27;;
75316;SDS011;63913;51.492;10.368;2023-11-21T01:42:27;2.40;;;1.50;;
75316;SDS011;63913;51.492;10.368;2023-11-21T01:44:54;2.47;;;1.52;;
75316;SDS011;63913;51.492;10.368;2023-11-21T01:47:20;4.75;;;2.53;;
75316;SDS011;63913;51.492;10.368;2023-11-21T01:49:46;3.38;;;1.80;;
75316;SDS011;63913;51.492;10.368;2023-11-21T01:52:12;7.53;;;2.03;;
75316;SDS011;63913;51.492;10.368;2023-11-21T01:54:40;6.65;;;1.90;;
75316;SDS011;63913;51.492;10.368;2023-11-21T01:57:06;4.88;;;1.45;;
75316;SDS011;63913;51.492;10.368;2023-11-21T01:59:34;3.80;;;1.40;;
75316;SDS011;63913;51.492;10.368;2023-11-21T02:02:06;4.18;;;1.73;;
75316;SDS011;63913;51.492;10.368;2023-11-21T02:04:33;2.67;;;1.55;;
75316;SDS011;63913;51.492;10.368;2023-11-21T02:06:59;4.03;;;1.40;;
75316;SDS011;63913;51.492;10.368;2023-11-21T02:09:25;3.17;;;1.52;;
75316;SDS011;63913;51.492;10.368;2023-11-21T02:11:55;3.67;;;1.85;;
75316;SDS011;63913;51.492;10.368;2023-11-21T02:14:21;5.03;;;1.70;;
75316;SDS011;63913;51.492;10.368;2023-11-21T02:16:48;5.22;;;1.98;;
75316;SDS011;63913;51.492;10.368;2023-11-21T02:19:17;5.80;;;1.50;;
75316;SDS011;63913;51.492;10.368;2023-11-21T02:21:54;4.22;;;1.63;;
75316;SDS011;63913;51.492;10.368;2023-11-21T02:24:25;4.00;;;1.70;;
75316;SDS011;63913;51.492;10.368;2023-11-21T02:26:52;6.32;;;2.08;;
75316;SDS011;63913;51.492;10.368;2023-11-21T02:29:21;5.90;;;1.80;;
75316;SDS011;63913;51.492;10.368;2023-11-21T02:31:51;6.80;;;1.92;;
75316;SDS011;63913;51.492;10.368;2023-11-21T02:34:20;4.55;;;1.58;;
75316;SDS011;63913;51.492;10.368;2023-11-21T02:36:47;3.30;;;1.98;;
75316;SDS011;63913;51.492;10.368;2023-11-21T02:39:14;3.05;;;1.50;;
75316;SDS011;63913;51.492;10.368;2023-11-21T02:41:41;3.80;;;1.58;;
75316;SDS011;63913;51.492;10.368;2023-11-21T02:44:08;4.78;;;1.85;;
75316;SDS011;63913;51.492;10.368;2023-11-21T02:46:34;4.63;;;1.80;;
75316;SDS011;63913;51.492;10.368;2023-11-21T02:49:03;3.10;;;1.65;;
75316;SDS011;63913;51.492;10.368;2023-11-21T02:51:32;2.30;;;1.80;;
75316;SDS011;63913;51.492;10.368;2023-11-21T02:53:58;5.03;;;1.80;;
75316;SDS011;63913;51.492;10.368;2023-11-21T02:56:26;4.10;;;1.65;;
75316;SDS011;63913;51.492;10.368;2023-11-21T02:58:52;6.45;;;2.03;;
75316;SDS011;63913;51.492;10.368;2023-11-21T03:01:20;2.65;;;1.60;;
75316;SDS011;63913;51.492;10.368;2023-11-21T03:03:46;2.50;;;1.50;;
75316;SDS011;63913;51.492;10.368;2023-11-21T03:06:16;4.40;;;1.83;;
75316;SDS011;63913;51.492;10.368;2023-11-21T03:08:44;4.28;;;1.70;;
75316;SDS011;63913;51.492;10.368;2023-11-21T03:11:09;4.00;;;2.15;;
75316;SDS011;63913;51.492;10.368;2023-11-21T03:13:35;6.05;;;1.83;;
75316;SDS011;63913;51.492;10.368;2023-11-21T03:16:00;5.32;;;2.05;;
75316;SDS011;63913;51.492;10.368;2023-11-21T03:18:26;2.45;;;1.30;;
75316;SDS011;63913;51.492;10.368;2023-11-21T03:20:54;2.72;;;1.65;;
75316;SDS011;63913;51.492;10.368;2023-11-21T03:23:20;3.38;;;1.50;;
75316;SDS011;63913;51.492;10.368;2023-11-21T03:25:45;3.75;;;1.80;;
75316;SDS011;63913;51.492;10.368;2023-11-21T03:28:10;2.33;;;1.50;;
75316;SDS011;63913;51.492;10.368;2023-11-21T03:30:36;4.72;;;1.63;;
75316;SDS011;63913;51.492;10.368;2023-11-21T03:33:02;3.17;;;1.58;;
75316;SDS011;63913;51.492;10.368;2023-11-21T03:35:28;4.72;;;1.83;;
75316;SDS011;63913;51.492;10.368;2023-11-21T03:37:53;4.32;;;1.83;;
75316;SDS011;63913;51.492;10.368;2023-11-21T03:40:19;2.00;;;1.70;;
75316;SDS011;63913;51.492;10.368;2023-11-21T03:42:46;2.42;;;1.65;;
75316;SDS011;63913;51.492;10.368;2023-11-21T03:45:12;4.85;;;1.60;;
75316;SDS011;63913;51.492;10.368;2023-11-21T03:47:38;5.13;;;1.40;;
75316;SDS011;63913;51.492;10.368;2023-11-21T03:50:04;5.90;;;1.73;;
75316;SDS011;63913;51.492;10.368;2023-11-21T03:52:30;3.92;;;1.60;;
75316;SDS011;63913;51.492;10.368;2023-11-21T03:54:55;8.13;;;1.98;;
75316;SDS011;63913;51.492;10.368;2023-11-21T03:57:21;6.82;;;1.60;;
75316;SDS011;63913;51.492;10.368;2023-11-21T03:59:46;3.78;;;1.85;;
75316;SDS011;63913;51.492;10.368;2023-11-21T04:02:12;3.58;;;1.75;;
75316;SDS011;63913;51.492;10.368;2023-11-21T04:04:37;5.88;;;1.95;;
75316;SDS011;63913;51.492;10.368;2023-11-21T04:07:03;3.88;;;2.05;;
75316;SDS011;63913;51.492;10.368;2023-11-21T04:09:29;5.75;;;2.00;;
75316;SDS011;63913;51.492;10.368;2023-11-21T04:11:55;6.45;;;1.88;;
75316;SDS011;63913;51.492;10.368;2023-11-21T04:14:20;3.00;;;1.42;;
75316;SDS011;63913;51.492;10.368;2023-11-21T04:16:46;3.60;;;1.80;;
75316;SDS011;63913;51.492;10.368;2023-11-21T04:19:11;3.33;;;1.80;;
75316;SDS011;63913;51.492;10.368;2023-11-21T04:21:40;2.58;;;1.70;;
75316;SDS011;63913;51.492;10.368;2023-11-21T04:24:06;2.38;;;1.55;;
75316;SDS011;63913;51.492;10.368;2023-11-21T04:26:31;2.95;;;1.65;;
75316;SDS011;63913;51.492;10.368;2023-11-21T04:28:57;4.00;;;1.60;;
75316;SDS011;63913;51.492;10.368;2023-11-21T04:31:22;7.70;;;3.47;;
75316;SDS011;63913;51.492;10.368;2023-11-21T04:33:48;5.15;;;2.65;;
75316;SDS011;63913;51.492;10.368;2023-11-21T04:36:13;4.30;;;2.30;;
75316;SDS011;63913;51.492;10.368;2023-11-21T04:38:39;3.25;;;2.35;;
75316;SDS011;63913;51.492;10.368;2023-11-21T04:41:04;7.28;;;4.00;;
75316;SDS011;63913;51.492;10.368;2023-11-21T04:43:30;4.72;;;2.63;;
75316;SDS011;63913;51.492;10.368;2023-11-21T04:45:55;4.75;;;2.03;;
75316;SDS011;63913;51.492;10.368;2023-11-21T04:48:21;4.63;;;2.05;;
75316;SDS011;63913;51.492;10.368;2023-11-21T04:50:46;5.25;;;2.40;;
75316;SDS011;63913;51.492;10.368;2023-11-21T04:53:11;4.15;;;2.22;;
75316;SDS011;63913;51.492;10.368;2023-11-21T04:55:39;2.35;;;1.90;;
75316;SDS011;63913;51.492;10.368;2023-11-21T04:58:06;6.57;;;2.17;;
75316;SDS011;63913;51.492;10.368;2023-11-21T05:00:33;4.55;;;2.10;;
75316;SDS011;63913;51.492;10.368;2023-11-21T05:03:02;2.50;;;1.85;;
75316;SDS011;63913;51.492;10.368;2023-11-21T05:05:28;5.15;;;2.03;;
75316;SDS011;63913;51.492;10.368;2023-11-21T05:07:54;7.43;;;2.10;;
75316;SDS011;63913;51.492;10.368;2023-11-21T05:10:20;4.05;;;2.50;;
75316;SDS011;63913;51.492;10.368;2023-11-21T05:12:45;3.95;;;2.20;;
75316;SDS011;63913;51.492;10.368;2023-11-21T05:15:13;6.80;;;2.05;;
75316;SDS011;63913;51.492;10.368;2023-11-21T05:17:40;3.50;;;1.98;;
75316;SDS011;63913;51.492;10.368;2023-11-21T05:20:09;3.20;;;2.17;;
75316;SDS011;63913;51.492;10.368;2023-11-21T05:22:36;7.80;;;2.67;;
75316;SDS011;63913;51.492;10.368;2023-11-21T05:25:02;7.25;;;3.00;;
75316;SDS011;63913;51.492;10.368;2023-11-21T05:27:29;5.68;;;3.00;;
75316;SDS011;63913;51.492;10.368;2023-11-21T05:29:56;4.50;;;2.80;;
75316;SDS011;63913;51.492;10.368;2023-11-21T05:32:23;9.48;;;3.25;;
75316;SDS011;63913;51.492;10.368;2023-11-21T05:34:49;9.25;;;3.47;;
75316;SDS011;63913;51.492;10.368;2023-11-21T05:37:14;5.72;;;2.75;;
75316;SDS011;63913;51.492;10.368;2023-11-21T05:39:40;5.90;;;3.00;;
75316;SDS011;63913;51.492;10.368;2023-11-21T05:42:05;5.03;;;2.97;;
75316;SDS011;63913;51.492;10.368;2023-11-21T05:44:31;7.40;;;3.30;;
75316;SDS011;63913;51.492;10.368;2023-11-21T05:46:57;5.90;;;3.05;;
75316;SDS011;63913;51.492;10.368;2023-11-21T05:49:24;7.13;;;3.75;;
75316;SDS011;63913;51.492;10.368;2023-11-21T05:51:52;8.95;;;3.47;;
75316;SDS011;63913;51.492;10.368;2023-11-21T05:54:19;7.57;;;3.63;;
75316;SDS011;63913;51.492;10.368;2023-11-21T05:56:44;7.15;;;3.78;;
75316;SDS011;63913;51.492;10.368;2023-11-21T05:59:10;12.18;;;4.38;;
75316;SDS011;63913;51.492;10.368;2023-11-21T06:01:35;11.32;;;5.72;;
75316;SDS011;63913;51.492;10.368;2023-11-21T06:04:03;10.77;;;5.65;;
75316;SDS011;63913;51.492;10.368;2023-11-21T06:06:29;11.00;;;4.70;;
75316;SDS011;63913;51.492;10.368;2023-11-21T06:08:56;10.88;;;5.00;;
75316;SDS011;63913;51.492;10.368;2023-11-21T06:11:21;9.80;;;4.55;;
75316;SDS011;63913;51.492;10.368;2023-11-21T06:13:47;11.73;;;4.50;;
75316;SDS011;63913;51.492;10.368;2023-11-21T06:16:13;11.10;;;4.60;;
75316;SDS011;63913;51.492;10.368;2023-11-21T06:18:41;9.27;;;4.43;;
75316;SDS011;63913;51.492;10.368;2023-11-21T06:21:09;9.85;;;4.50;;
75316;SDS011;63913;51.492;10.368;2023-11-21T06:23:34;10.57;;;5.00;;
75316;SDS011;63913;51.492;10.368;2023-11-21T06:26:00;9.73;;;4.00;;
75316;SDS011;63913;51.492;10.368;2023-11-21T06:28:26;10.82;;;4.40;;
75316;SDS011;63913;51.492;10.368;2023-11-21T06:30:51;9.77;;;3.70;;
75316;SDS011;63913;51.492;10.368;2023-11-21T06:33:18;13.75;;;4.43;;
75316;SDS011;63913;51.492;10.368;2023-11-21T06:35:44;9.38;;;4.22;;
75316;SDS011;63913;51.492;10.368;2023-11-21T06:38:10;10.00;;;4.22;;
75316;SDS011;63913;51.492;10.368;2023-11-21T06:40:38;13.57;;;4.88;;
75316;SDS011;63913;51.492;10.368;2023-11-21T06:43:04;10.48;;;4.03;;
75316;SDS011;63913;51.492;10.368;2023-11-21T06:45:32;11.43;;;4.32;;
75316;SDS011;63913;51.492;10.368;2023-11-21T06:47:57;9.52;;;3.85;;
75316;SDS011;63913;51.492;10.368;2023-11-21T06:50:22;13.45;;;4.28;;
75316;SDS011;63913;51.492;10.368;2023-11-21T06:52:49;9.23;;;4.15;;
75316;SDS011;63913;51.492;10.368;2023-11-21T06:55:15;10.48;;;4.38;;
75316;SDS011;63913;51.492;10.368;2023-11-21T06:57:41;12.82;;;4.35;;
75316;SDS011;63913;51.492;10.368;2023-11-21T07:00:07;10.48;;;4.05;;
75316;SDS011;63913;51.492;10.368;2023-11-21T07:02:36;9.98;;;4.53;;
75316;SDS011;63913;51.492;10.368;2023-11-21T07:05:03;10.98;;;4.30;;
75316;SDS011;63913;51.492;10.368;2023-11-21T07:07:29;12.27;;;5.57;;
75316;SDS011;63913;51.492;10.368;2023-11-21T07:09:54;13.88;;;5.30;;
75316;SDS011;63913;51.492;10.368;2023-11-21T07:12:20;11.82;;;4.97;;
75316;SDS011;63913;51.492;10.368;2023-11-21T07:14:48;13.15;;;5.35;;
75316;SDS011;63913;51.492;10.368;2023-11-21T07:17:14;13.13;;;5.03;;
75316;SDS011;63913;51.492;10.368;2023-11-21T07:19:39;12.38;;;5.15;;
75316;SDS011;63913;51.492;10.368;2023-11-21T07:22:06;17.98;;;5.68;;
75316;SDS011;63913;51.492;10.368;2023-11-21T07:24:32;15.50;;;5.57;;
75316;SDS011;63913;51.492;10.368;2023-11-21T07:26:58;13.60;;;6.05;;
75316;SDS011;63913;51.492;10.368;2023-11-21T07:29:25;10.98;;;4.95;;
75316;SDS011;63913;51.492;10.368;2023-11-21T07:31:51;13.52;;;5.90;;
75316;SDS011;63913;51.492;10.368;2023-11-21T07:34:19;14.93;;;6.13;;
75316;SDS011;63913;51.492;10.368;2023-11-21T07:36:45;20.05;;;6.40;;
75316;SDS011;63913;51.492;10.368;2023-11-21T07:39:11;22.10;;;7.60;;
75316;SDS011;63913;51.492;10.368;2023-11-21T07:41:37;13.85;;;6.88;;
75316;SDS011;63913;51.492;10.368;2023-11-21T07:44:05;12.25;;;5.85;;
75316;SDS011;63913;51.492;10.368;2023-11-21T07:46:33;13.57;;;6.68;;
75316;SDS011;63913;51.492;10.368;2023-11-21T07:48:58;21.23;;;7.15;;
75316;SDS011;63913;51.492;10.368;2023-11-21T07:51:24;18.50;;;7.63;;
75316;SDS011;63913;51.492;10.368;2023-11-21T07:53:49;20.13;;;6.22;;
75316;SDS011;63913;51.492;10.368;2023-11-21T07:56:15;19.00;;;6.32;;
75316;SDS011;63913;51.492;10.368;2023-11-21T07:58:41;14.85;;;5.85;;
75316;SDS011;63913;51.492;10.368;2023-11-21T08:01:08;23.50;;;7.20;;
75316;SDS011;63913;51.492;10.368;2023-11-21T08:03:35;14.40;;;6.40;;
75316;SDS011;63913;51.492;10.368;2023-11-21T08:06:00;13.77;;;5.45;;
75316;SDS011;63913;51.492;10.368;2023-11-21T08:08:28;14.57;;;5.60;;
75316;SDS011;63913;51.492;10.368;2023-11-21T08:10:54;17.77;;;6.00;;
75316;SDS011;63913;51.492;10.368;2023-11-21T08:13:24;16.30;;;5.55;;
75316;SDS011;63913;51.492;10.368;2023-11-21T08:15:50;16.92;;;6.93;;
75316;SDS011;63913;51.492;10.368;2023-11-21T08:18:16;16.77;;;5.43;;
75316;SDS011;63913;51.492;10.368;2023-11-21T08:20:42;11.95;;;5.28;;
75316;SDS011;63913;51.492;10.368;2023-11-21T08:23:08;12.07;;;5.57;;
75316;SDS011;63913;51.492;10.368;2023-11-21T08:25:34;11.77;;;4.72;;
75316;SDS011;63913;51.492;10.368;2023-11-21T08:28:00;10.15;;;5.00;;
75316;SDS011;63913;51.492;10.368;2023-11-21T08:30:26;15.77;;;6.85;;
75316;SDS011;63913;51.492;10.368;2023-11-21T08:32:55;14.38;;;5.95;;
75316;SDS011;63913;51.492;10.368;2023-11-21T08:35:23;18.38;;;6.72;;
75316;SDS011;63913;51.492;10.368;2023-11-21T08:37:51;24.05;;;6.90;;
75316;SDS011;63913;51.492;10.368;2023-11-21T08:40:20;18.27;;;6.13;;
75316;SDS011;63913;51.492;10.368;2023-11-21T08:42:47;17.58;;;5.95;;
75316;SDS011;63913;51.492;10.368;2023-11-21T08:45:13;19.95;;;6.95;;
75316;SDS011;63913;51.492;10.368;2023-11-21T08:47:39;14.45;;;6.15;;
75316;SDS011;63913;51.492;10.368;2023-11-21T08:50:06;14.98;;;5.45;;
75316;SDS011;63913;51.492;10.368;2023-11-21T08:52:33;17.38;;;6.63;;
75316;SDS011;63913;51.492;10.368;2023-11-21T08:54:59;17.63;;;6.95;;
75316;SDS011;63913;51.492;10.368;2023-11-21T08:57:28;21.13;;;6.82;;
75316;SDS011;63913;51.492;10.368;2023-11-21T08:59:53;20.05;;;6.47;;
75316;SDS011;63913;51.492;10.368;2023-11-21T09:02:21;20.00;;;6.43;;
75316;SDS011;63913;51.492;10.368;2023-11-21T09:04:48;14.02;;;5.35;;
75316;SDS011;63913;51.492;10.368;2023-11-21T09:07:14;19.15;;;6.07;;
75316;SDS011;63913;51.492;10.368;2023-11-21T09:09:40;20.75;;;6.72;;
75316;SDS011;63913;51.492;10.368;2023-11-21T09:12:06;18.20;;;6.22;;
75316;SDS011;63913;51.492;10.368;2023-11-21T09:14:32;13.75;;;5.85;;
75316;SDS011;63913;51.492;10.368;2023-11-21T09:16:57;17.35;;;6.25;;
75316;SDS011;63913;51.492;10.368;2023-11-21T09:19:23;17.58;;;6.60;;
75316;SDS011;63913;51.492;10.368;2023-11-21T09:21:48;17.88;;;7.00;;
75316;SDS011;63913;51.492;10.368;2023-11-21T09:24:14;19.27;;;6.88;;
75316;SDS011;63913;51.492;10.368;2023-11-21T09:26:39;15.88;;;6.28;;
75316;SDS011;63913;51.492;10.368;2023-11-21T09:29:05;14.07;;;5.53;;
75316;SDS011;63913;51.492;10.368;2023-11-21T09:31:30;12.05;;;5.00;;
75316;SDS011;63913;51.492;10.368;2023-11-21T09:33:56;15.98;;;5.68;;
75316;SDS011;63913;51.492;10.368;2023-11-21T09:36:22;13.25;;;5.20;;
75316;SDS011;63913;51.492;10.368;2023-11-21T09:38:52;14.27;;;5.82;;
75316;SDS011;63913;51.492;10.368;2023-11-21T09:41:21;16.23;;;5.90;;
75316;SDS011;63913;51.492;10.368;2023-11-21T09:44:09;11.20;;;4.97;;
75316;SDS011;63913;51.492;10.368;2023-11-21T09:46:40;12.93;;;4.82;;
75316;SDS011;63913;51.492;10.368;2023-11-21T09:49:08;12.40;;;5.40;;
75316;SDS011;63913;51.492;10.368;2023-11-21T09:51:39;12.02;;;5.63;;
75316;SDS011;63913;51.492;10.368;2023-11-21T09:54:08;12.90;;;5.35;;
75316;SDS011;63913;51.492;10.368;2023-11-21T09:56:35;11.48;;;4.93;;
75316;SDS011;63913;51.492;10.368;2023-11-21T09:59:02;11.02;;;5.13;;
75316;SDS011;63913;51.492;10.368;2023-11-21T10:01:32;11.52;;;5.43;;
75316;SDS011;63913;51.492;10.368;2023-11-21T10:04:00;13.57;;;5.72;;
75316;SDS011;63913;51.492;10.368;2023-11-21T10:06:28;13.30;;;5.90;;
75316;SDS011;63913;51.492;10.368;2023-11-21T10:08:55;19.55;;;10.80;;
75316;SDS011;63913;51.492;10.368;2023-11-21T10:11:27;12.00;;;5.07;;
75316;SDS011;63913;51.492;10.368;2023-11-21T10:13:53;12.48;;;5.63;;
75316;SDS011;63913;51.492;10.368;2023-11-21T10:16:20;12.77;;;5.43;;
75316;SDS011;63913;51.492;10.368;2023-11-21T10:18:50;11.13;;;4.65;;
75316;SDS011;63913;51.492;10.368;2023-11-21T10:21:20;14.55;;;5.47;;
75316;SDS011;63913;51.492;10.368;2023-11-21T10:23:47;13.73;;;5.38;;
75316;SDS011;63913;51.492;10.368;2023-11-21T10:26:13;12.60;;;6.03;;
75316;SDS011;63913;51.492;10.368;2023-11-21T10:29:02;19.02;;;5.88;;
75316;SDS011;63913;51.492;10.368;2023-11-21T10:31:29;13.35;;;5.55;;
75316;SDS011;63913;51.492;10.368;2023-11-21T10:34:14;14.38;;;5.68;;
75316;SDS011;63913;51.492;10.368;2023-11-21T10:36:41;16.08;;;6.53;;
75316;SDS011;63913;51.492;10.368;2023-11-21T10:39:14;16.80;;;6.03;;
75316;SDS011;63913;51.492;10.368;2023-11-21T10:41:45;15.15;;;6.40;;
75316;SDS011;63913;51.492;10.368;2023-11-21T10:44:14;10.90;;;5.03;;
75316;SDS011;63913;51.492;10.368;2023-11-21T10:46:52;12.98;;;5.10;;
75316;SDS011;63913;51.492;10.368;2023-11-21T10:49:22;9.90;;;5.00;;
75316;SDS011;63913;51.492;10.368;2023-11-21T10:51:50;12.77;;;4.93;;
75316;SDS011;63913;51.492;10.368;2023-11-21T10:54:21;12.52;;;4.93;;
75316;SDS011;63913;51.492;10.368;2023-11-21T10:56:52;11.23;;;4.68;;
75316;SDS011;63913;51.492;10.368;2023-11-21T10:59:22;9.43;;;3.72;;
75316;SDS011;63913;51.492;10.368;2023-11-21T11:01:50;9.57;;;4.32;;
75316;SDS011;63913;51.492;10.368;2023-11-21T11:04:19;10.88;;;4.47;;
75316;SDS011;63913;51.492;10.368;2023-11-21T11:06:50;6.97;;;3.90;;
75316;SDS011;63913;51.492;10.368;2023-11-21T11:09:19;12.38;;;5.10;;
75316;SDS011;63913;51.492;10.368;2023-11-21T11:11:46;10.00;;;4.35;;
75316;SDS011;63913;51.492;10.368;2023-11-21T11:14:11;12.68;;;5.47;;
75316;SDS011;63913;51.492;10.368;2023-11-21T11:16:41;12.18;;;4.82;;
75316;SDS011;63913;51.492;10.368;2023-11-21T11:19:11;9.07;;;4.15;;
75316;SDS011;63913;51.492;10.368;2023-11-21T11:27:34;9.43;;;4.20;;
75316;SDS011;63913;51.492;10.368;2023-11-21T11:33:08;23.33;;;8.82;;
75316;SDS011;63913;51.492;10.368;2023-11-21T11:35:51;17.80;;;7.13;;
75316;SDS011;63913;51.492;10.368;2023-11-21T11:38:22;14.52;;;6.18;;
75316;SDS011;63913;51.492;10.368;2023-11-21T11:40:48;12.82;;;5.32;;
75316;SDS011;63913;51.492;10.368;2023-11-21T11:43:27;17.05;;;7.40;;
75316;SDS011;63913;51.492;10.368;2023-11-21T11:45:58;10.73;;;4.78;;
75316;SDS011;63913;51.492;10.368;2023-11-21T11:48:24;12.15;;;4.40;;
75316;SDS011;63913;51.492;10.368;2023-11-21T11:51:03;8.52;;;4.20;;
75316;SDS011;63913;51.492;10.368;2023-11-21T11:53:35;9.95;;;4.10;;
75316;SDS011;63913;51.492;10.368;2023-11-21T11:58:59;9.95;;;3.80;;
75316;SDS011;63913;51.492;10.368;2023-11-21T12:01:34;9.88;;;5.03;;
75316;SDS011;63913;51.492;10.368;2023-11-21T12:06:40;13.20;;;4.43;;
75316;SDS011;63913;51.492;10.368;2023-11-21T12:09:06;8.88;;;4.20;;
75316;SDS011;63913;51.492;10.368;2023-11-21T12:11:32;10.77;;;4.60;;
75316;SDS011;63913;51.492;10.368;2023-11-21T12:13:58;12.48;;;4.68;;
75316;SDS011;63913;51.492;10.368;2023-11-21T12:16:25;10.45;;;4.82;;
75316;SDS011;63913;51.492;10.368;2023-11-21T12:18:53;9.05;;;4.35;;
75316;SDS011;63913;51.492;10.368;2023-11-21T12:21:19;9.05;;;4.63;;
75316;SDS011;63913;51.492;10.368;2023-11-21T12:23:46;10.73;;;5.55;;
75316;SDS011;63913;51.492;10.368;2023-11-21T12:26:13;12.45;;;6.07;;
75316;SDS011;63913;51.492;10.368;2023-11-21T12:28:38;10.35;;;4.28;;
75316;SDS011;63913;51.492;10.368;2023-11-21T12:31:05;8.18;;;3.83;;
75316;SDS011;63913;51.492;10.368;2023-11-21T12:33:32;9.63;;;4.47;;
75316;SDS011;63913;51.492;10.368;2023-11-21T12:35:58;9.15;;;4.18;;
75316;SDS011;63913;51.492;10.368;2023-11-21T12:38:24;9.18;;;4.60;;
75316;SDS011;63913;51.492;10.368;2023-11-21T12:40:50;9.52;;;4.28;;
75316;SDS011;63913;51.492;10.368;2023-11-21T12:43:16;7.53;;;3.88;;
75316;SDS011;63913;51.492;10.368;2023-11-21T12:45:43;8.13;;;4.22;;
75316;SDS011;63913;51.492;10.368;2023-11-21T12:48:09;9.32;;;5.20;;
75316;SDS011;63913;51.492;10.368;2023-11-21T12:50:36;9.10;;;4.43;;
75316;SDS011;63913;51.492;10.368;2023-11-21T12:53:07;8.82;;;4.38;;
75316;SDS011;63913;51.492;10.368;2023-11-21T12:55:35;8.05;;;4.00;;
75316;SDS011;63913;51.492;10.368;2023-11-21T12:58:05;10.52;;;4.15;;
75316;SDS011;63913;51.492;10.368;2023-11-21T13:00:38;7.25;;;3.25;;
75316;SDS011;63913;51.492;10.368;2023-11-21T13:03:11;5.05;;;2.35;;
75316;SDS011;63913;51.492;10.368;2023-11-21T13:05:42;3.38;;;1.95;;
75316;SDS011;63913;51.492;10.368;2023-11-21T13:08:10;2.83;;;1.63;;
75316;SDS011;63913;51.492;10.368;2023-11-21T13:10:44;4.03;;;2.03;;
75316;SDS011;63913;51.492;10.368;2023-11-21T13:13:12;4.15;;;1.90;;
75316;SDS011;63913;51.492;10.368;2023-11-21T13:15:55;3.72;;;1.95;;
75316;SDS011;63913;51.492;10.368;2023-11-21T13:18:22;2.33;;;1.88;;
75316;SDS011;63913;51.492;10.368;2023-11-21T13:20:55;3.20;;;2.00;;
75316;SDS011;63913;51.492;10.368;2023-11-21T13:25:49;4.50;;;2.60;;
75316;SDS011;63913;51.492;10.368;2023-11-21T13:28:15;3.92;;;2.03;;
75316;SDS011;63913;51.492;10.368;2023-11-21T13:30:40;6.40;;;2.67;;
75316;SDS011;63913;51.492;10.368;2023-11-21T13:33:07;4.65;;;2.60;;
75316;SDS011;63913;51.492;10.368;2023-11-21T13:35:33;5.55;;;2.85;;
75316;SDS011;63913;51.492;10.368;2023-11-21T13:40:32;5.63;;;2.72;;
75316;SDS011;63913;51.492;10.368;2023-11-21T13:43:05;4.90;;;2.78;;
75316;SDS011;63913;51.492;10.368;2023-11-21T13:45:35;4.07;;;2.67;;
75316;SDS011;63913;51.492;10.368;2023-11-21T13:48:01;6.30;;;3.30;;
75316;SDS011;63913;51.492;10.368;2023-11-21T13:50:27;5.03;;;2.88;;
75316;SDS011;63913;51.492;10.368;2023-11-21T13:52:59;4.25;;;2.47;;
75316;SDS011;63913;51.492;10.368;2023-11-21T13:55:34;6.95;;;2.60;;
75316;SDS011;63913;51.492;10.368;2023-11-21T13:58:01;4.72;;;2.75;;
75316;SDS011;63913;51.492;10.368;2023-11-21T14:00:28;7.22;;;2.85;;
75316;SDS011;63913;51.492;10.368;2023-11-21T14:03:17;4.75;;;2.60;;
75316;SDS011;63913;51.492;10.368;2023-11-21T14:05:47;6.60;;;2.70;;
75316;SDS011;63913;51.492;10.368;2023-11-21T14:08:18;5.00;;;2.70;;
75316;SDS011;63913;51.492;10.368;2023-11-21T14:10:46;4.60;;;2.67;;
75316;SDS011;63913;51.492;10.368;2023-11-21T14:13:25;7.28;;;3.92;;
75316;SDS011;63913;51.492;10.368;2023-11-21T14:15:52;3.67;;;2.65;;
75316;SDS011;63913;51.492;10.368;2023-11-21T14:18:24;3.97;;;2.83;;
75316;SDS011;63913;51.492;10.368;2023-11-21T14:20:56;5.72;;;2.70;;
75316;SDS011;63913;51.492;10.368;2023-11-21T14:23:22;5.88;;;2.75;;
75316;SDS011;63913;51.492;10.368;2023-11-21T14:25:48;3.88;;;2.35;;
75316;SDS011;63913;51.492;10.368;2023-11-21T14:28:15;5.18;;;2.90;;
75316;SDS011;63913;51.492;10.368;2023-11-21T14:30:42;5.10;;;2.72;;
75316;SDS011;63913;51.492;10.368;2023-11-21T14:33:07;4.97;;;2.58;;
75316;SDS011;63913;51.492;10.368;2023-11-21T14:35:35;4.53;;;2.35;;
75316;SDS011;63913;51.492;10.368;2023-11-21T14:38:00;7.30;;;2.75;;
75316;SDS011;63913;51.492;10.368;2023-11-21T14:40:27;7.60;;;2.83;;
75316;SDS011;63913;51.492;10.368;2023-11-21T14:42:58;4.60;;;2.63;;
75316;SDS011;63913;51.492;10.368;2023-11-21T14:45:24;4.45;;;2.40;;
75316;SDS011;63913;51.492;10.368;2023-11-21T14:47:51;4.60;;;2.38;;